Time;durP1;ratioP1;P1;durP2;ratioP2;P2;SDS_P1;SDS_P2;PMS_P1;PMS_P2;Temp;Humidity;BMP_temperature;BMP_pressure;BME280_temperature;BME280_humidity;BME280_pressure;Samples;Min_cycle;Max_cycle;Signal;HPM_P1;HPM_P2
2021/06/11 00:01:34;;;;;;;;;;;25.10;99.90;;;;;;1899237;75;20135;-90
2021/06/11 00:04:05;;;;;;;;;;;25.20;99.90;;;;;;1872441;75;20137;-91
2021/06/11 00:06:36;;;;;;;;;;;25.20;99.90;;;;;;1860397;76;20231;-91
2021/06/11 00:09:07;;;;;;;;;;;25.20;99.90;;;;;;1913650;73;20205;-90
2021/06/11 00:11:37;;;;;;;;;;;25.20;99.90;;;;;;1908971;74;20190;-91
2021/06/11 00:14:06;;;;;;;;;;;25.20;99.90;;;;;;1902545;73;20178;-91
2021/06/11 00:16:36;;;;;;;;;;;25.20;99.90;;;;;;1898537;74;20205;-89
2021/06/11 00:19:06;;;;;;;;;;;25.20;99.90;;;;;;1909648;73;20205;-92
2021/06/11 00:21:36;;;;;;;;;;;25.20;99.90;;;;;;1900761;74;20395;-89
2021/06/11 00:24:06;;;;;;;;;;;25.20;99.90;;;;;;1903731;73;20351;-90
2021/06/11 00:26:35;;;;;;;;;;;25.20;99.90;;;;;;1873238;74;20185;-92
2021/06/11 00:29:05;;;;;;;;;;;25.20;99.90;;;;;;1881048;74;20232;-91
2021/06/11 00:31:34;;;;;;;;;;;25.30;99.90;;;;;;1884895;76;20176;-90
2021/06/11 00:34:04;;;;;;;;;;;25.30;99.90;;;;;;1884270;75;20238;-91
2021/06/11 00:36:35;;;;;;;;;;;25.30;99.90;;;;;;1860581;76;20538;-90
2021/06/11 00:39:05;;;;;;;;;;;25.30;99.90;;;;;;1852862;76;20156;-91
2021/06/11 00:41:35;;;;;;;;;;;25.40;99.90;;;;;;1892679;74;20195;-91
2021/06/11 00:44:05;;;;;;;;;;;25.40;99.90;;;;;;1874366;75;20649;-90
2021/06/11 00:46:34;;;;;;;;;;;25.40;99.90;;;;;;1896583;74;20155;-91
2021/06/11 00:49:04;;;;;;;;;;;25.50;99.90;;;;;;1892146;74;20191;-90
2021/06/11 00:51:34;;;;;;;;;;;25.50;99.90;;;;;;1894265;74;20195;-90
2021/06/11 00:54:04;;;;;;;;;;;25.50;99.90;;;;;;1892543;74;20211;-92
2021/06/11 00:56:33;;;;;;;;;;;25.50;99.90;;;;;;1891962;76;20167;-91
2021/06/11 00:59:03;;;;;;;;;;;25.50;99.90;;;;;;1885348;74;20167;-90
2021/06/11 01:01:33;;;;;;;;;;;25.60;99.90;;;;;;1884822;75;20234;-92
2021/06/11 01:04:06;;;;;;;;;;;25.60;99.90;;;;;;1884730;75;20413;-92
2021/06/11 01:06:37;;;;;;;;;;;25.70;99.90;;;;;;1902369;74;20232;-89
2021/06/11 01:09:07;;;;;;;;;;;25.80;99.90;;;;;;1898009;74;20159;-87
2021/06/11 01:11:39;;;;;;;;;;;25.90;99.90;;;;;;1884953;74;20181;-87
2021/06/11 01:14:10;;;;;;;;;;;25.90;99.90;;;;;;1884731;75;20202;-91
2021/06/11 01:16:40;;;;;;;;;;;26.00;99.90;;;;;;1884948;75;20175;-87
2021/06/11 01:19:11;;;;;;;;;;;26.00;99.90;;;;;;1888627;74;20415;-87
2021/06/11 01:21:42;;;;;;;;;;;26.10;99.90;;;;;;1878973;76;20299;-88
2021/06/11 01:24:16;;;;;;;;;;;26.10;99.90;;;;;;1877835;76;20176;-88
2021/06/11 01:26:53;;;;;;;;;;;26.10;99.90;;;;;;1856021;76;20269;-87
2021/06/11 01:29:24;;;;;;;;;;;26.20;99.90;;;;;;1836717;76;20820;-87
2021/06/11 01:31:55;;;;;;;;;;;26.20;99.90;;;;;;1837512;76;20131;-87
2021/06/11 01:34:29;;;;;;;;;;;26.20;99.90;;;;;;1840660;76;20180;-87
2021/06/11 01:37:00;;;;;;;;;;;26.20;99.90;;;;;;1839870;76;20214;-87
2021/06/11 01:39:30;;;;;;;;;;;26.30;99.90;;;;;;1854011;75;20207;-87
2021/06/11 01:42:01;;;;;;;;;;;26.30;99.90;;;;;;1854716;75;20212;-88
2021/06/11 01:44:31;;;;;;;;;;;26.40;99.90;;;;;;1859605;75;20196;-90
2021/06/11 01:47:01;;;;;;;;;;;26.50;99.90;;;;;;1847034;76;20505;-88
2021/06/11 01:49:32;;;;;;;;;;;26.60;99.90;;;;;;1847873;76;20220;-87
2021/06/11 01:52:03;;;;;;;;;;;26.70;99.90;;;;;;1841807;76;20463;-87
2021/06/11 01:54:34;;;;;;;;;;;26.70;99.90;;;;;;1835464;76;20647;-87
2021/06/11 01:57:10;;;;;;;;;;;26.80;99.90;;;;;;1839265;78;20168;-88
2021/06/11 01:59:40;;;;;;;;;;;26.80;99.90;;;;;;1835559;78;20255;-78
2021/06/11 02:02:10;;;;;;;;;;;26.80;99.90;;;;;;1836970;78;20758;-78
2021/06/11 02:04:40;;;;;;;;;;;26.80;99.90;;;;;;1837821;78;20238;-78
2021/06/11 02:07:10;;;;;;;;;;;26.80;99.90;;;;;;1839762;76;20228;-78
2021/06/11 02:09:41;;;;;;;;;;;26.90;99.90;;;;;;1839802;76;20261;-79
2021/06/11 02:12:11;;;;;;;;;;;26.90;99.90;;;;;;1834477;78;20522;-80
2021/06/11 02:14:41;;;;;;;;;;;26.90;99.90;;;;;;1840340;78;20211;-78
2021/06/11 02:17:12;;;;;;;;;;;27.00;99.90;;;;;;1841258;78;20160;-78
2021/06/11 02:19:42;;;;;;;;;;;27.00;99.90;;;;;;1842914;77;20509;-78
2021/06/11 02:22:12;;;;;;;;;;;27.10;99.90;;;;;;1837953;78;20512;-78
2021/06/11 02:24:42;;;;;;;;;;;27.20;99.90;;;;;;1839528;76;20241;-78
2021/06/11 02:27:19;;;;;;;;;;;27.20;99.90;;;;;;1859328;75;20245;-77
2021/06/11 02:29:44;;;;;;;;;;;27.20;99.90;;;;;;1877081;75;20545;-78
2021/06/11 02:32:13;;;;;;;;;;;27.30;99.90;;;;;;1865211;75;20506;-77
2021/06/11 02:34:43;;;;;;;;;;;27.40;99.90;;;;;;1878390;75;20465;-78
2021/06/11 02:37:13;;;;;;;;;;;27.50;99.90;;;;;;1870235;75;20488;-78
2021/06/11 02:39:44;;;;;;;;;;;27.60;99.90;;;;;;1871671;75;20516;-78
2021/06/11 02:42:14;;;;;;;;;;;27.60;99.90;;;;;;1883480;75;20179;-78
2021/06/11 02:44:45;;;;;;;;;;;27.70;99.90;;;;;;1872821;75;20213;-77
2021/06/11 02:47:16;;;;;;;;;;;27.70;99.90;;;;;;1877320;75;20215;-78
2021/06/11 02:49:47;;;;;;;;;;;27.70;99.90;;;;;;1871647;75;20502;-78
2021/06/11 02:52:18;;;;;;;;;;;27.70;99.90;;;;;;1877970;75;20189;-77
2021/06/11 02:54:48;;;;;;;;;;;27.80;99.90;;;;;;1878385;75;20247;-78
2021/06/11 02:57:19;;;;;;;;;;;27.80;99.90;;;;;;1879331;75;20169;-78
2021/06/11 02:59:49;;;;;;;;;;;27.80;99.90;;;;;;1876070;75;20227;-78
2021/06/11 03:02:20;;;;;;;;;;;27.90;99.90;;;;;;1876344;75;20195;-78
2021/06/11 03:04:51;;;;;;;;;;;27.90;99.90;;;;;;1874657;75;20197;-77
2021/06/11 03:07:25;;;;;;;;;;;27.90;99.90;;;;;;1862499;75;20205;-78
2021/06/11 03:09:53;;;;;;;;;;;28.00;99.90;;;;;;1877756;75;20202;-79
2021/06/11 03:12:24;;;;;;;;;;;28.10;99.90;;;;;;1868094;75;20185;-79
2021/06/11 03:14:54;;;;;;;;;;;28.20;99.90;;;;;;1881813;75;20225;-78
2021/06/11 03:17:25;;;;;;;;;;;28.30;99.90;;;;;;1876788;75;20244;-78
2021/06/11 03:19:59;;;;;;;;;;;28.40;99.50;;;;;;1881193;75;20150;-77
2021/06/11 03:22:30;;;;;;;;;;;28.50;99.70;;;;;;1882553;76;20291;-78
2021/06/11 03:25:01;;;;;;;;;;;28.60;98.90;;;;;;1883346;75;20205;-78
2021/06/11 03:27:32;;;;;;;;;;;28.70;99.40;;;;;;1875766;75;20207;-79
2021/06/11 03:30:03;;;;;;;;;;;28.80;98.80;;;;;;1877011;76;20192;-78
2021/06/11 03:32:34;;;;;;;;;;;28.90;98.30;;;;;;1874289;75;20208;-77
2021/06/11 03:35:05;;;;;;;;;;;29.00;98.00;;;;;;1878595;75;20186;-78
2021/06/11 03:37:35;;;;;;;;;;;29.10;98.20;;;;;;1878385;75;20165;-77
2021/06/11 03:40:05;;;;;;;;;;;29.20;97.50;;;;;;1879665;75;20134;-77
2021/06/11 03:42:36;;;;;;;;;;;29.30;97.20;;;;;;1880407;75;20294;-77
2021/06/11 03:45:07;;;;;;;;;;;29.40;96.60;;;;;;1878888;75;20243;-78
2021/06/11 03:47:37;;;;;;;;;;;29.50;95.40;;;;;;1875385;75;20179;-78
2021/06/11 03:50:08;;;;;;;;;;;29.60;94.80;;;;;;1878189;75;20496;-79
2021/06/11 03:52:39;;;;;;;;;;;29.70;94.80;;;;;;1869651;75;20559;-78
2021/06/11 03:55:10;;;;;;;;;;;29.70;95.20;;;;;;1873869;75;20255;-79
2021/06/11 03:57:41;;;;;;;;;;;29.70;94.90;;;;;;1871606;76;20187;-78
2021/06/11 04:00:12;;;;;;;;;;;29.70;95.10;;;;;;1871727;75;20276;-79
2021/06/11 04:02:41;;;;;;;;;;;29.70;94.90;;;;;;1870777;75;20238;-77
2021/06/11 04:05:12;;;;;;;;;;;29.70;94.60;;;;;;1880289;75;20478;-78
2021/06/11 04:10:33;;;;;;;;;;;29.70;94.20;;;;;;1818342;77;20227;-78
2021/06/11 04:13:04;;;;;;;;;;;29.70;94.20;;;;;;1847475;76;20509;-76
2021/06/11 04:15:33;;;;;;;;;;;29.70;93.40;;;;;;1840816;76;20174;-77
2021/06/11 04:18:04;;;;;;;;;;;29.70;93.40;;;;;;1846043;77;20146;-77
2021/06/11 04:20:34;;;;;;;;;;;29.80;93.40;;;;;;1796740;78;20220;-77
2021/06/11 04:23:08;;;;;;;;;;;29.80;93.20;;;;;;1800454;77;20253;-78
2021/06/11 04:25:37;;;;;;;;;;;29.90;92.20;;;;;;1802546;77;20202;-77
2021/06/11 04:28:08;;;;;;;;;;;29.90;92.80;;;;;;1814033;78;20596;-77
2021/06/11 04:30:38;;;;;;;;;;;29.90;93.10;;;;;;1817975;76;20209;-76
2021/06/11 04:33:09;;;;;;;;;;;29.90;93.00;;;;;;1828823;77;20275;-75
2021/06/11 04:35:42;;;;;;;;;;;29.90;92.70;;;;;;1815942;77;20659;-78
2021/06/11 04:38:11;;;;;;;;;;;30.00;92.10;;;;;;1794120;79;20269;-77
2021/06/11 04:40:41;;;;;;;;;;;30.00;92.50;;;;;;1883278;75;20212;-79
2021/06/11 04:43:11;;;;;;;;;;;30.20;91.80;;;;;;1829456;78;20207;-77
2021/06/11 04:45:41;;;;;;;;;;;30.30;92.00;;;;;;1874577;75;20176;-80
2021/06/11 04:48:11;;;;;;;;;;;30.30;91.70;;;;;;1862059;75;20188;-77
2021/06/11 04:50:40;;;;;;;;;;;30.40;91.70;;;;;;1862020;76;20227;-78
2021/06/11 04:53:10;;;;;;;;;;;30.40;91.40;;;;;;1857134;76;20643;-76
2021/06/11 04:55:40;;;;;;;;;;;30.40;91.10;;;;;;1868434;75;20172;-77
2021/06/11 04:58:10;;;;;;;;;;;30.40;91.10;;;;;;1818760;78;20222;-77
2021/06/11 05:00:40;;;;;;;;;;;30.40;91.50;;;;;;1810696;78;20228;-77
2021/06/11 05:03:09;;;;;;;;;;;30.30;90.80;;;;;;1815311;77;20156;-77
2021/06/11 05:05:39;;;;;;;;;;;30.30;91.00;;;;;;1815022;77;20148;-78
2021/06/11 05:08:10;;;;;;;;;;;30.20;91.40;;;;;;1820483;77;20180;-77
2021/06/11 05:10:40;;;;;;;;;;;30.20;91.30;;;;;;1817961;77;20557;-78
2021/06/11 05:13:10;;;;;;;;;;;30.20;91.30;;;;;;1822655;77;20172;-76
2021/06/11 05:15:39;;;;;;;;;;;30.10;91.70;;;;;;1822488;77;20238;-77
2021/06/11 05:18:10;;;;;;;;;;;30.00;92.10;;;;;;1831754;76;20543;-76
2021/06/11 05:20:39;;;;;;;;;;;29.90;91.90;;;;;;1833939;77;20238;-76
2021/06/11 05:23:09;;;;;;;;;;;29.90;92.50;;;;;;1827689;76;20172;-76
2021/06/11 05:25:39;;;;;;;;;;;29.90;91.90;;;;;;1852257;76;20175;-75
2021/06/11 05:28:09;;;;;;;;;;;29.90;92.10;;;;;;1835171;77;20233;-75
2021/06/11 05:30:39;;;;;;;;;;;29.90;91.40;;;;;;1789632;78;20209;-76
2021/06/11 05:33:09;;;;;;;;;;;29.90;91.50;;;;;;1842415;76;20139;-76
2021/06/11 05:35:39;;;;;;;;;;;29.90;92.10;;;;;;1849775;77;20197;-77
2021/06/11 05:38:09;;;;;;;;;;;29.90;91.60;;;;;;1847242;76;21051;-75
2021/06/11 05:40:40;;;;;;;;;;;29.90;91.70;;;;;;1824510;77;20229;-76
2021/06/11 05:43:10;;;;;;;;;;;29.80;91.70;;;;;;1831512;78;20262;-75
2021/06/11 05:45:40;;;;;;;;;;;29.90;92.20;;;;;;1817028;78;20167;-75
2021/06/11 05:48:10;;;;;;;;;;;29.90;92.20;;;;;;1834301;76;20182;-76
2021/06/11 05:50:40;;;;;;;;;;;29.90;90.60;;;;;;1832015;76;20160;-76
2021/06/11 05:53:10;;;;;;;;;;;30.00;91.20;;;;;;1836602;76;20445;-77
2021/06/11 05:55:40;;;;;;;;;;;30.10;91.70;;;;;;1837978;77;20568;-76
2021/06/11 05:58:12;;;;;;;;;;;30.20;91.50;;;;;;1825933;77;20125;-77
2021/06/11 06:00:41;;;;;;;;;;;30.30;89.00;;;;;;1840919;76;20198;-78
2021/06/11 06:03:11;;;;;;;;;;;30.40;90.10;;;;;;1838596;76;20239;-79
2021/06/11 06:05:40;;;;;;;;;;;30.60;89.90;;;;;;1842857;76;20247;-79
2021/06/11 06:08:11;;;;;;;;;;;30.60;86.30;;;;;;1822085;76;20292;-76
2021/06/11 06:10:41;;;;;;;;;;;30.70;88.90;;;;;;1849760;77;20174;-76
2021/06/11 06:13:11;;;;;;;;;;;30.80;88.70;;;;;;1855057;76;20249;-77
2021/06/11 06:15:42;;;;;;;;;;;30.90;87.80;;;;;;1838472;76;20247;-76
2021/06/11 06:18:13;;;;;;;;;;;31.10;86.60;;;;;;1812535;76;20214;-76
2021/06/11 06:20:46;;;;;;;;;;;31.10;87.50;;;;;;1835306;77;20135;-77
2021/06/11 06:23:15;;;;;;;;;;;31.20;87.60;;;;;;1821910;77;20414;-76
2021/06/11 06:25:45;;;;;;;;;;;31.10;85.80;;;;;;1845376;76;20196;-74
2021/06/11 06:28:15;;;;;;;;;;;31.00;85.20;;;;;;1839203;76;20560;-75
2021/06/11 06:30:45;;;;;;;;;;;31.00;85.30;;;;;;1842280;76;20249;-75
2021/06/11 06:33:14;;;;;;;;;;;30.80;85.90;;;;;;1841230;76;20222;-75
2021/06/11 06:35:44;;;;;;;;;;;30.80;86.60;;;;;;1844101;77;20186;-75
2021/06/11 06:38:14;;;;;;;;;;;30.60;86.90;;;;;;1852600;76;20476;-76
2021/06/11 06:40:46;;;;;;;;;;;30.50;88.00;;;;;;1846426;76;20188;-75
2021/06/11 06:43:15;;;;;;;;;;;30.50;88.30;;;;;;1842364;76;20198;-75
2021/06/11 06:45:44;;;;;;;;;;;30.40;89.20;;;;;;1845006;76;20182;-75
2021/06/11 06:48:14;;;;;;;;;;;30.50;89.30;;;;;;1847096;77;20546;-76
2021/06/11 06:50:43;;;;;;;;;;;30.40;89.40;;;;;;1847345;77;20215;-76
2021/06/11 06:53:13;;;;;;;;;;;30.40;89.10;;;;;;1860298;77;20206;-75
2021/06/11 06:55:43;;;;;;;;;;;30.40;90.00;;;;;;1839433;76;20223;-75
2021/06/11 06:58:13;;;;;;;;;;;30.40;88.80;;;;;;1850240;77;20143;-75
2021/06/11 07:00:43;;;;;;;;;;;30.30;89.60;;;;;;1833338;76;20140;-75
2021/06/11 07:03:13;;;;;;;;;;;30.20;89.70;;;;;;1829597;77;20171;-75
2021/06/11 07:05:42;;;;;;;;;;;30.20;89.00;;;;;;1826009;76;20193;-76
2021/06/11 07:08:12;;;;;;;;;;;30.20;89.70;;;;;;1832031;78;20221;-76
2021/06/11 07:10:42;;;;;;;;;;;30.20;89.60;;;;;;1835720;78;20230;-75
2021/06/11 07:13:12;;;;;;;;;;;30.30;89.50;;;;;;1837715;78;20206;-76
2021/06/11 07:15:42;;;;;;;;;;;30.30;89.00;;;;;;1829673;77;20445;-75
2021/06/11 07:18:12;;;;;;;;;;;30.30;89.20;;;;;;1831737;78;20170;-76
2021/06/11 07:20:42;;;;;;;;;;;30.30;88.90;;;;;;1825286;77;20164;-76
2021/06/11 07:23:12;;;;;;;;;;;30.40;88.70;;;;;;1870583;75;20181;-76
2021/06/11 07:25:41;;;;;;;;;;;30.40;89.60;;;;;;1821243;78;20445;-75
2021/06/11 07:28:11;;;;;;;;;;;30.30;88.30;;;;;;1868203;75;20237;-75
2021/06/11 07:30:41;;;;;;;;;;;30.40;88.10;;;;;;1875125;75;20201;-75
2021/06/11 07:33:11;;;;;;;;;;;30.40;88.00;;;;;;1885892;75;20433;-75
2021/06/11 07:35:40;;;;;;;;;;;30.50;88.20;;;;;;1860897;75;20404;-76
2021/06/11 07:38:10;;;;;;;;;;;30.50;88.80;;;;;;1838213;76;20204;-75
2021/06/11 07:40:41;;;;;;;;;;;30.50;88.40;;;;;;1828547;76;20223;-75
2021/06/11 07:43:11;;;;;;;;;;;30.60;87.60;;;;;;1856443;76;20202;-75
2021/06/11 07:45:41;;;;;;;;;;;30.60;87.80;;;;;;1871811;75;20299;-75
2021/06/11 07:48:11;;;;;;;;;;;30.60;88.70;;;;;;1871077;75;20147;-74
2021/06/11 07:50:44;;;;;;;;;;;30.60;87.20;;;;;;1883666;75;20126;-75
2021/06/11 07:53:14;;;;;;;;;;;30.50;87.10;;;;;;1874053;75;20173;-75
2021/06/11 07:55:44;;;;;;;;;;;30.50;88.30;;;;;;1862150;75;20227;-76
2021/06/11 07:58:14;;;;;;;;;;;30.50;89.20;;;;;;1882021;75;20188;-75
2021/06/11 08:00:45;;;;;;;;;;;30.50;87.80;;;;;;1869524;75;20226;-76
2021/06/11 08:03:15;;;;;;;;;;;30.50;89.10;;;;;;1862792;75;20211;-75
2021/06/11 08:05:45;;;;;;;;;;;30.40;89.40;;;;;;1866292;75;20190;-75
2021/06/11 08:08:15;;;;;;;;;;;30.40;88.80;;;;;;1871375;76;20250;-76
2021/06/11 08:10:45;;;;;;;;;;;30.40;89.50;;;;;;1860947;75;20199;-76
2021/06/11 08:13:15;;;;;;;;;;;30.40;89.90;;;;;;1876390;75;20176;-76
2021/06/11 08:15:45;;;;;;;;;;;30.40;89.40;;;;;;1864149;76;20195;-75
2021/06/11 08:18:15;;;;;;;;;;;30.40;90.10;;;;;;1826209;78;20253;-76
2021/06/11 08:20:45;;;;;;;;;;;30.40;90.60;;;;;;1873368;75;20185;-75
2021/06/11 08:23:15;;;;;;;;;;;30.40;90.40;;;;;;1871155;75;20172;-75
2021/06/11 08:25:46;;;;;;;;;;;30.40;90.50;;;;;;1893402;74;20237;-75
2021/06/11 08:28:16;;;;;;;;;;;30.40;89.20;;;;;;1865711;75;20468;-76
2021/06/11 08:30:45;;;;;;;;;;;30.40;87.20;;;;;;1873944;75;20223;-76
2021/06/11 08:33:15;;;;;;;;;;;30.40;85.60;;;;;;1877060;74;20215;-76
2021/06/11 08:35:46;;;;;;;;;;;30.40;86.70;;;;;;1887693;75;20197;-76
2021/06/11 08:38:16;;;;;;;;;;;30.50;86.30;;;;;;1882084;75;20514;-75
2021/06/11 08:40:46;;;;;;;;;;;30.50;87.20;;;;;;1876168;75;20149;-78
2021/06/11 08:43:17;;;;;;;;;;;30.50;87.80;;;;;;1890526;75;20142;-77
2021/06/11 08:45:48;;;;;;;;;;;30.50;87.30;;;;;;1878266;75;20431;-76
2021/06/11 08:48:22;;;;;;;;;;;30.50;87.20;;;;;;1879733;75;20203;-78
2021/06/11 08:50:52;;;;;;;;;;;30.50;87.80;;;;;;1877934;74;20121;-76
2021/06/11 08:53:21;;;;;;;;;;;30.50;88.40;;;;;;1883416;74;20132;-77
2021/06/11 08:55:51;;;;;;;;;;;30.40;88.10;;;;;;1873797;75;20156;-76
2021/06/11 08:58:21;;;;;;;;;;;30.40;88.50;;;;;;1891210;75;20209;-79
2021/06/11 09:00:51;;;;;;;;;;;30.40;89.60;;;;;;1869209;75;20175;-77
2021/06/11 09:03:25;;;;;;;;;;;30.40;88.50;;;;;;1883946;75;20285;-77
2021/06/11 09:05:54;;;;;;;;;;;30.40;88.20;;;;;;1862153;75;20862;-74
2021/06/11 09:08:24;;;;;;;;;;;30.40;87.60;;;;;;1823127;78;20200;-79
2021/06/11 09:10:55;;;;;;;;;;;30.30;87.60;;;;;;1872156;75;20270;-79
2021/06/11 09:13:26;;;;;;;;;;;30.30;87.80;;;;;;1875281;76;20118;-78
2021/06/11 09:15:57;;;;;;;;;;;30.20;87.80;;;;;;1866602;76;20228;-78
2021/06/11 09:18:27;;;;;;;;;;;30.20;88.10;;;;;;1863989;75;20186;-78
2021/06/11 09:20:57;;;;;;;;;;;30.20;88.70;;;;;;1835677;76;20209;-79
2021/06/11 09:23:27;;;;;;;;;;;30.20;88.90;;;;;;1859247;76;20121;-77
2021/06/11 09:25:57;;;;;;;;;;;30.20;89.00;;;;;;1852903;76;20219;-78
2021/06/11 09:28:28;;;;;;;;;;;30.20;89.30;;;;;;1852348;76;20179;-77
2021/06/11 09:30:58;;;;;;;;;;;30.20;89.00;;;;;;1851831;76;20180;-76
2021/06/11 09:33:28;;;;;;;;;;;30.20;89.10;;;;;;1855645;75;20133;-76
2021/06/11 09:36:02;;;;;;;;;;;30.20;88.00;;;;;;1854286;76;20180;-74
2021/06/11 09:38:30;;;;;;;;;;;30.20;87.60;;;;;;1846126;76;20445;-75
2021/06/11 09:41:02;;;;;;;;;;;30.20;87.60;;;;;;1851659;75;20208;-77
2021/06/11 09:43:33;;;;;;;;;;;30.20;88.50;;;;;;1854830;76;20220;-76
2021/06/11 09:46:06;;;;;;;;;;;30.10;87.70;;;;;;1872782;74;20427;-76
2021/06/11 09:48:36;;;;;;;;;;;30.10;87.10;;;;;;1813799;77;20204;-75
2021/06/11 09:51:07;;;;;;;;;;;30.10;87.20;;;;;;1846575;75;20159;-77
2021/06/11 09:53:37;;;;;;;;;;;30.10;87.60;;;;;;1848910;76;20246;-75
2021/06/11 09:56:08;;;;;;;;;;;30.00;87.50;;;;;;1860503;74;20608;-75
2021/06/11 09:58:39;;;;;;;;;;;30.10;87.40;;;;;;1853254;77;20596;-75
2021/06/11 10:01:10;;;;;;;;;;;30.10;88.00;;;;;;1855271;75;20158;-77
2021/06/11 10:03:42;;;;;;;;;;;30.10;88.00;;;;;;1846991;76;20193;-75
2021/06/11 10:06:13;;;;;;;;;;;30.10;88.00;;;;;;1843108;76;20290;-75
2021/06/11 10:08:43;;;;;;;;;;;30.10;88.60;;;;;;1832067;77;20121;-76
2021/06/11 10:11:14;;;;;;;;;;;30.10;88.10;;;;;;1854592;77;20203;-76
2021/06/11 10:13:45;;;;;;;;;;;30.10;87.90;;;;;;1886066;75;20423;-76
2021/06/11 10:16:16;;;;;;;;;;;30.00;87.90;;;;;;1827649;78;20982;-75
2021/06/11 10:18:46;;;;;;;;;;;30.10;88.70;;;;;;1894056;75;20497;-76
2021/06/11 10:21:16;;;;;;;;;;;30.10;89.00;;;;;;1895483;75;20211;-75
2021/06/11 10:23:46;;;;;;;;;;;30.10;89.50;;;;;;1878497;75;20232;-75
2021/06/11 10:26:15;;;;;;;;;;;30.10;89.90;;;;;;1868436;75;20195;-75
2021/06/11 10:28:50;;;;;;;;;;;30.10;89.90;;;;;;1903715;75;20201;-75
2021/06/11 10:31:19;;;;;;;;;;;30.10;88.70;;;;;;1886738;75;20198;-75
2021/06/11 10:33:50;;;;;;;;;;;30.10;88.50;;;;;;1891213;74;20527;-75
2021/06/11 10:36:21;;;;;;;;;;;30.10;88.10;;;;;;1875827;75;20266;-76
2021/06/11 10:38:51;;;;;;;;;;;30.10;88.60;;;;;;1873046;75;20131;-76
2021/06/11 10:41:22;;;;;;;;;;;30.10;89.00;;;;;;1869302;76;20246;-76
2021/06/11 10:43:52;;;;;;;;;;;30.00;89.00;;;;;;1906982;74;20240;-76
2021/06/11 10:46:26;;;;;;;;;;;30.00;88.10;;;;;;1862674;75;20486;-76
2021/06/11 10:48:56;;;;;;;;;;;30.00;88.30;;;;;;1877498;75;20160;-75
2021/06/11 10:51:27;;;;;;;;;;;30.00;88.40;;;;;;1875722;75;20159;-76
2021/06/11 10:53:58;;;;;;;;;;;29.90;88.50;;;;;;1895432;74;20188;-76
2021/06/11 10:56:28;;;;;;;;;;;29.90;88.90;;;;;;1899180;75;20173;-76
2021/06/11 10:58:58;;;;;;;;;;;29.80;89.20;;;;;;1898494;75;20180;-76
2021/06/11 11:01:29;;;;;;;;;;;29.80;89.60;;;;;;1887551;75;20163;-77
2021/06/11 11:04:00;;;;;;;;;;;29.80;89.90;;;;;;1889293;75;20320;-76
2021/06/11 11:06:31;;;;;;;;;;;29.80;90.10;;;;;;1892758;75;20427;-76
2021/06/11 11:09:02;;;;;;;;;;;29.80;90.20;;;;;;1871342;75;20458;-75
2021/06/11 11:11:33;;;;;;;;;;;29.80;90.20;;;;;;1878045;75;20133;-75
2021/06/11 11:14:04;;;;;;;;;;;29.80;90.40;;;;;;1881115;76;20210;-75
2021/06/11 11:16:37;;;;;;;;;;;29.70;90.40;;;;;;1892359;75;20196;-75
2021/06/11 11:19:07;;;;;;;;;;;29.70;90.10;;;;;;1874001;75;20522;-74
2021/06/11 11:21:40;;;;;;;;;;;29.70;90.20;;;;;;1889839;75;20132;-76
2021/06/11 11:24:10;;;;;;;;;;;29.70;90.20;;;;;;1888461;75;20182;-74
2021/06/11 11:26:40;;;;;;;;;;;29.60;90.40;;;;;;1881265;74;20169;-74
2021/06/11 11:29:11;;;;;;;;;;;29.60;90.40;;;;;;1896490;75;20145;-75
2021/06/11 11:31:42;;;;;;;;;;;29.50;90.50;;;;;;1828016;77;20193;-75
2021/06/11 11:34:13;;;;;;;;;;;29.50;90.70;;;;;;1883176;75;20152;-90
2021/06/11 11:36:43;;;;;;;;;;;29.50;90.80;;;;;;1897201;75;20211;-87
2021/06/11 11:39:13;;;;;;;;;;;29.50;90.90;;;;;;1876839;75;20218;-88
2021/06/11 11:41:44;;;;;;;;;;;29.50;91.00;;;;;;1912190;75;20191;-88
2021/06/11 11:44:30;;;;;;;;;;;29.40;91.00;;;;;;1887340;75;20206;-89
2021/06/11 11:47:03;;;;;;;;;;;29.40;91.00;;;;;;1851963;76;20175;-88
2021/06/11 11:49:32;;;;;;;;;;;29.40;91.10;;;;;;1836169;77;20210;-87
2021/06/11 11:52:14;;;;;;;;;;;29.30;91.20;;;;;;1829633;77;20166;-89
2021/06/11 11:54:45;;;;;;;;;;;29.30;91.20;;;;;;1822393;77;20249;-89
2021/06/11 11:57:15;;;;;;;;;;;29.30;91.40;;;;;;1810286;77;20249;-89
2021/06/11 11:59:46;;;;;;;;;;;29.20;91.40;;;;;;1827186;77;20268;-89
2021/06/11 12:02:16;;;;;;;;;;;29.20;91.50;;;;;;1820309;77;20481;-88
2021/06/11 12:04:46;;;;;;;;;;;29.20;91.50;;;;;;1856942;75;20177;-89
2021/06/11 12:07:16;;;;;;;;;;;29.20;91.60;;;;;;1860622;75;20133;-88
2021/06/11 12:09:46;;;;;;;;;;;29.20;91.80;;;;;;1856325;75;20160;-88
2021/06/11 12:12:16;;;;;;;;;;;29.20;91.90;;;;;;1848350;76;20168;-88
2021/06/11 12:14:45;;;;;;;;;;;29.10;92.00;;;;;;1894589;75;20188;-87
2021/06/11 12:17:15;;;;;;;;;;;29.20;92.10;;;;;;1900364;75;20432;-88
2021/06/11 12:19:45;;;;;;;;;;;29.10;92.20;;;;;;1907374;75;20482;-87
2021/06/11 12:22:16;;;;;;;;;;;29.10;92.20;;;;;;1898178;75;20175;-88
2021/06/11 12:24:45;;;;;;;;;;;29.10;92.30;;;;;;1887871;75;20116;-87
2021/06/11 12:27:15;;;;;;;;;;;29.10;92.40;;;;;;1891092;75;20198;-88
2021/06/11 12:29:47;;;;;;;;;;;29.10;92.50;;;;;;1863771;76;20166;-89
2021/06/11 12:32:16;;;;;;;;;;;29.10;92.60;;;;;;1818242;77;20404;-88
2021/06/11 12:34:45;;;;;;;;;;;29.00;92.70;;;;;;1869972;76;20246;-89
2021/06/11 12:37:15;;;;;;;;;;;28.90;92.70;;;;;;1861246;76;20139;-88
2021/06/11 12:39:45;;;;;;;;;;;28.90;92.80;;;;;;1835522;76;20233;-89
2021/06/11 12:42:18;;;;;;;;;;;28.90;92.90;;;;;;1884955;75;20636;-88
2021/06/11 12:44:47;;;;;;;;;;;28.90;92.90;;;;;;1882212;75;20184;-89
2021/06/11 12:47:18;;;;;;;;;;;28.90;92.90;;;;;;1881998;75;20486;-89
2021/06/11 12:49:47;;;;;;;;;;;28.80;92.90;;;;;;1882272;76;20522;-89
2021/06/11 12:52:19;;;;;;;;;;;28.80;93.00;;;;;;1884134;75;20285;-90
2021/06/11 12:54:49;;;;;;;;;;;28.80;93.00;;;;;;1882786;75;20308;-89
2021/06/11 12:57:18;;;;;;;;;;;28.80;93.10;;;;;;1881893;75;20132;-89
2021/06/11 12:59:51;;;;;;;;;;;28.80;93.10;;;;;;1883290;75;20183;-88
2021/06/11 13:02:23;;;;;;;;;;;28.80;93.30;;;;;;1891079;74;20253;-89
2021/06/11 13:04:55;;;;;;;;;;;28.80;93.30;;;;;;1886730;75;20183;-91
2021/06/11 13:07:27;;;;;;;;;;;28.80;93.30;;;;;;1889790;75;20140;-90
2021/06/11 13:10:06;;;;;;;;;;;28.80;93.50;;;;;;1899114;75;20197;-89
2021/06/11 13:12:36;;;;;;;;;;;28.80;93.60;;;;;;1884703;75;20227;-89
2021/06/11 13:15:10;;;;;;;;;;;28.80;93.60;;;;;;1860347;75;20166;-89
2021/06/11 13:18:00;;;;;;;;;;;28.70;93.60;;;;;;1856545;75;20187;-90
2021/06/11 13:20:30;;;;;;;;;;;28.70;93.70;;;;;;1868320;76;20163;-90
2021/06/11 13:23:00;;;;;;;;;;;28.70;93.70;;;;;;1845711;76;20166;-89
2021/06/11 13:25:30;;;;;;;;;;;28.70;93.70;;;;;;1837984;77;20236;-88
2021/06/11 13:28:00;;;;;;;;;;;28.70;93.80;;;;;;1836434;77;20182;-88
2021/06/11 13:30:31;;;;;;;;;;;28.70;93.70;;;;;;1908675;74;20238;-89
2021/06/11 13:33:02;;;;;;;;;;;28.70;93.80;;;;;;1804815;77;20268;-89
2021/06/11 13:35:31;;;;;;;;;;;28.70;93.80;;;;;;1820990;78;20246;-90
2021/06/11 13:38:01;;;;;;;;;;;28.70;94.30;;;;;;1852924;77;20174;-89
2021/06/11 13:40:31;;;;;;;;;;;28.70;94.00;;;;;;1828594;77;20194;-91
2021/06/11 13:43:01;;;;;;;;;;;28.70;94.00;;;;;;1817839;77;20435;-89
2021/06/11 13:45:31;;;;;;;;;;;28.70;94.10;;;;;;1823053;77;20507;-90
2021/06/11 13:48:01;;;;;;;;;;;28.60;94.10;;;;;;1824788;78;20163;-90
2021/06/11 13:50:31;;;;;;;;;;;28.60;94.00;;;;;;1851121;77;20242;-89
2021/06/11 13:53:01;;;;;;;;;;;28.60;94.10;;;;;;1853984;76;20181;-89
2021/06/11 13:55:31;;;;;;;;;;;28.60;94.20;;;;;;1862423;76;20258;-89
2021/06/11 13:58:01;;;;;;;;;;;28.70;94.30;;;;;;1835036;77;20236;-88
2021/06/11 14:00:31;;;;;;;;;;;28.60;94.60;;;;;;1901834;75;20529;-89
2021/06/11 14:03:00;;;;;;;;;;;28.60;94.50;;;;;;1886963;74;20225;-90
2021/06/11 14:05:30;;;;;;;;;;;28.60;94.50;;;;;;1796132;78;20253;-89
2021/06/11 14:08:01;;;;;;;;;;;28.60;94.60;;;;;;1847506;77;20176;-89
2021/06/11 14:10:31;;;;;;;;;;;28.60;94.70;;;;;;1827446;77;20254;-89
2021/06/11 14:13:03;;;;;;;;;;;28.60;94.70;;;;;;1853197;77;20217;-89
2021/06/11 14:15:33;;;;;;;;;;;28.60;94.70;;;;;;1856718;76;20192;-89
2021/06/11 14:18:05;;;;;;;;;;;28.50;94.70;;;;;;1850198;76;20158;-90
2021/06/11 14:20:34;;;;;;;;;;;28.50;94.80;;;;;;1871007;76;20252;-89
2021/06/11 14:23:05;;;;;;;;;;;28.50;94.80;;;;;;1852758;77;20287;-89
2021/06/11 14:25:42;;;;;;;;;;;28.60;95.00;;;;;;1845352;77;20198;-89
2021/06/11 14:28:09;;;;;;;;;;;28.50;95.10;;;;;;1824511;77;20186;-89
2021/06/11 14:30:40;;;;;;;;;;;28.50;95.00;;;;;;1847992;76;20268;-90
2021/06/11 14:33:11;;;;;;;;;;;28.50;95.20;;;;;;1832468;78;20407;-90
2021/06/11 14:35:41;;;;;;;;;;;28.50;95.50;;;;;;1888193;75;20207;-90
2021/06/11 14:38:11;;;;;;;;;;;28.50;95.60;;;;;;1868289;76;20158;-90